createdAt,value
2022-11-07T00:00:02.512Z,7.53
2022-11-07T00:05:13.216Z,7.50
2022-11-07T00:10:14.019Z,7.60
2022-11-07T00:15:14.851Z,7.61
2022-11-07T00:20:17.139Z,7.57
2022-11-07T00:25:18.155Z,7.69
2022-11-07T00:30:19.039Z,7.77
2022-11-07T00:35:21.242Z,7.73
2022-11-07T00:40:22.045Z,7.75
2022-11-07T00:45:22.883Z,7.67
2022-11-07T00:50:25.011Z,7.58
2022-11-07T00:55:25.792Z,7.44
2022-11-07T01:00:27.249Z,7.43
2022-11-07T01:05:29.344Z,7.37
2022-11-07T01:10:30.180Z,7.36
2022-11-07T01:15:31.001Z,7.37
2022-11-07T01:20:33.145Z,7.41
2022-11-07T01:25:33.957Z,7.44
2022-11-07T01:30:35.135Z,7.42
2022-11-07T01:35:38.188Z,7.40
2022-11-07T01:41:04.103Z,7.37
2022-11-07T01:46:05.020Z,7.27
2022-11-07T01:51:08.344Z,7.33
2022-11-07T01:56:14.102Z,7.33
2022-11-07T02:01:16.322Z,7.28
2022-11-07T02:06:25.194Z,7.28
2022-11-07T02:11:26.366Z,7.22
2022-11-07T02:16:27.885Z,7.07
2022-11-07T02:21:42.240Z,7.02
2022-11-07T02:26:45.452Z,6.84
2022-11-07T02:31:46.271Z,6.91
2022-11-07T02:36:47.210Z,6.85
2022-11-07T02:41:49.804Z,6.73
2022-11-07T02:46:51.021Z,6.69
2022-11-07T02:51:51.842Z,6.67
2022-11-07T02:56:54.055Z,6.63
2022-11-07T03:01:55.115Z,6.55
2022-11-07T03:06:55.972Z,6.54
2022-11-07T03:11:58.161Z,6.41
2022-11-07T03:16:58.900Z,6.44
2022-11-07T03:21:59.768Z,6.43
2022-11-07T03:27:01.901Z,6.24
2022-11-07T03:32:02.695Z,6.21
2022-11-07T03:37:03.446Z,6.18
2022-11-07T03:42:05.841Z,6.06
2022-11-07T03:47:06.774Z,6.15
2022-11-07T03:52:07.537Z,6.16
2022-11-07T03:57:10.000Z,6.25
2022-11-07T04:02:10.965Z,6.31
2022-11-07T04:07:11.802Z,6.42
2022-11-07T04:12:31.401Z,6.51
2022-11-07T04:17:32.629Z,6.57
2022-11-07T04:22:34.140Z,6.58
2022-11-07T04:27:46.907Z,6.66
2022-11-07T04:32:48.671Z,6.80
2022-11-07T04:37:49.863Z,6.87
2022-11-07T04:42:52.120Z,6.97
2022-11-07T04:47:53.097Z,6.90
2022-11-07T04:52:53.931Z,6.97
2022-11-07T04:57:56.062Z,7.06
2022-11-07T05:02:56.941Z,7.11
2022-11-07T05:07:57.785Z,7.04
2022-11-07T05:12:59.964Z,7.42
2022-11-07T05:18:00.749Z,7.68
2022-11-07T05:23:15.543Z,7.84
2022-11-07T05:28:28.008Z,7.65
2022-11-07T05:33:31.541Z,7.49
2022-11-07T05:38:32.362Z,7.42
2022-11-07T05:43:34.592Z,7.16
2022-11-07T05:48:35.658Z,7.21
2022-11-07T05:53:36.639Z,7.12
2022-11-07T05:58:39.231Z,6.96
2022-11-07T06:03:40.003Z,6.90
2022-11-07T06:08:40.864Z,6.82
2022-11-07T06:13:43.015Z,6.61
2022-11-07T06:18:43.875Z,6.46
2022-11-07T06:23:44.823Z,6.52
2022-11-07T06:28:46.946Z,6.62
2022-11-07T06:33:50.739Z,6.65
2022-11-07T06:38:53.439Z,6.56
2022-11-07T06:43:55.578Z,6.56
2022-11-07T06:48:57.049Z,6.61
2022-11-07T06:53:57.957Z,6.75
2022-11-07T06:59:00.203Z,6.79
2022-11-07T07:04:01.443Z,6.80
2022-11-07T07:09:02.658Z,6.87
2022-11-07T07:14:10.228Z,7.01
2022-11-07T07:19:12.890Z,7.12
2022-11-07T07:24:13.908Z,7.38
2022-11-07T07:29:16.039Z,7.40
2022-11-07T07:34:16.815Z,7.43
2022-11-07T07:39:17.587Z,7.47
2022-11-07T07:44:19.920Z,7.61
2022-11-07T07:49:20.712Z,7.77
2022-11-07T07:54:21.589Z,7.81
2022-11-07T07:59:23.759Z,7.92
2022-11-07T08:04:24.704Z,8.01
2022-11-07T08:09:25.468Z,8.17
2022-11-07T08:14:27.729Z,8.36
2022-11-07T08:19:28.565Z,8.55
2022-11-07T08:24:29.333Z,8.67
2022-11-07T08:29:31.769Z,8.71
2022-11-07T08:34:32.554Z,8.77
2022-11-07T08:39:33.484Z,8.84
2022-11-07T08:44:36.763Z,8.97
2022-11-07T08:49:37.574Z,9.09
2022-11-07T08:54:38.328Z,9.38
2022-11-07T08:59:40.533Z,9.59
2022-11-07T09:04:41.501Z,9.78
2022-11-07T09:09:42.374Z,10.06
2022-11-07T09:14:44.550Z,10.33
2022-11-07T09:19:45.325Z,10.73
2022-11-07T09:24:46.207Z,11.29
2022-11-07T09:29:48.441Z,11.93
2022-11-07T09:34:55.927Z,12.41
2022-11-07T09:39:57.928Z,12.43
2022-11-07T09:45:01.198Z,12.30
2022-11-07T09:50:07.956Z,12.27
2022-11-07T09:55:16.607Z,12.48
2022-11-07T10:00:20.899Z,12.74
2022-11-07T10:05:31.793Z,12.98
2022-11-07T10:10:44.599Z,13.26
2022-11-07T10:16:03.007Z,13.34
2022-11-07T10:21:36.606Z,13.65
2022-11-07T10:26:33.300Z,13.97
2022-11-07T10:31:39.965Z,14.00
2022-11-07T10:36:40.847Z,14.03
2022-11-07T10:41:44.778Z,14.10
2022-11-07T10:46:51.540Z,13.96
2022-11-07T10:51:56.978Z,13.94
2022-11-07T10:57:03.421Z,13.92
2022-11-07T11:02:20.807Z,13.91
2022-11-07T11:07:28.418Z,14.04
2022-11-07T11:12:34.453Z,13.95
2022-11-07T11:17:37.093Z,14.01
2022-11-07T11:22:43.603Z,14.30
2022-11-07T11:27:47.851Z,14.38
2022-11-07T11:32:53.548Z,14.69
2022-11-07T11:38:01.865Z,14.82
2022-11-07T11:43:12.964Z,14.91
2022-11-07T11:48:25.451Z,14.93
2022-11-07T11:53:26.379Z,14.84
2022-11-07T11:58:40.285Z,14.96
2022-11-07T12:04:08.122Z,14.76
2022-11-07T12:09:33.071Z,14.73
2022-11-07T12:14:57.049Z,14.70
2022-11-07T12:20:11.262Z,14.68
2022-11-07T12:25:22.488Z,14.75
2022-11-07T12:30:27.441Z,14.35
2022-11-07T12:35:38.223Z,14.39
2022-11-07T12:40:51.189Z,14.52
2022-11-07T12:45:58.229Z,14.59
2022-11-07T12:51:06.109Z,14.54
2022-11-07T12:56:12.404Z,14.42
2022-11-07T13:01:14.798Z,14.17
2022-11-07T13:06:24.557Z,14.21
2022-11-07T13:11:32.800Z,14.32
2022-11-07T13:16:36.320Z,14.35
2022-11-07T13:21:43.415Z,14.35
2022-11-07T13:26:47.438Z,14.36
2022-11-07T13:32:06.544Z,14.26
2022-11-07T13:37:17.346Z,14.36
2022-11-07T13:42:19.869Z,14.46
2022-11-07T13:47:26.794Z,14.43
2022-11-07T13:52:39.565Z,14.46
2022-11-07T13:57:44.704Z,14.52
2022-11-07T14:02:52.419Z,14.63
2022-11-07T14:07:59.327Z,14.65
2022-11-07T14:13:07.326Z,14.64
2022-11-07T14:18:08.474Z,14.57
2022-11-07T14:23:14.317Z,14.42
2022-11-07T14:28:17.616Z,14.39
2022-11-07T14:33:21.015Z,14.25
2022-11-07T14:38:26.088Z,14.13
2022-11-07T14:43:27.856Z,14.02
2022-11-07T14:48:30.086Z,14.06
2022-11-07T14:53:38.050Z,13.89
2022-11-07T14:58:39.267Z,14.01
2022-11-07T15:03:52.674Z,13.72
2022-11-07T15:09:00.618Z,13.63
2022-11-07T15:14:04.065Z,13.49
2022-11-07T15:19:07.166Z,13.60
2022-11-07T15:24:32.517Z,13.46
2022-11-07T15:29:36.381Z,13.27
2022-11-07T15:34:58.756Z,13.27
2022-11-07T15:39:59.535Z,13.12
2022-11-07T15:45:00.401Z,12.93
2022-11-07T15:50:04.646Z,12.81
2022-11-07T15:55:10.387Z,12.72
2022-11-07T16:00:16.821Z,12.71
2022-11-07T16:05:18.370Z,12.67
2022-11-07T16:10:23.964Z,12.65
2022-11-07T16:15:26.423Z,12.61
2022-11-07T16:20:27.274Z,12.96
2022-11-07T16:25:31.569Z,12.79
2022-11-07T16:30:34.369Z,12.86
2022-11-07T16:35:35.190Z,12.65
2022-11-07T16:40:39.932Z,12.80
2022-11-07T16:45:46.382Z,12.71
2022-11-07T16:50:47.798Z,12.80
2022-11-07T16:55:53.696Z,12.71
2022-11-07T17:00:56.465Z,12.61
2022-11-07T17:05:59.974Z,12.25
2022-11-07T17:11:02.080Z,12.23
2022-11-07T17:16:03.063Z,12.16
2022-11-07T17:21:04.119Z,12.21
2022-11-07T17:26:07.009Z,12.11
2022-11-07T17:31:07.890Z,12.03
2022-11-07T17:36:23.927Z,12.06
2022-11-07T17:41:28.302Z,11.85
2022-11-07T17:46:32.211Z,11.70
2022-11-07T17:51:33.205Z,11.55
2022-11-07T17:56:35.517Z,11.45
2022-11-07T18:01:38.571Z,11.31
2022-11-07T18:06:41.597Z,11.12
2022-11-07T18:11:44.129Z,10.99
2022-11-07T18:16:44.980Z,10.80
2022-11-07T18:21:45.871Z,10.82
2022-11-07T18:26:50.938Z,10.67
2022-11-07T18:31:51.883Z,10.65
2022-11-07T18:36:52.795Z,10.55
2022-11-07T18:41:55.133Z,10.57
2022-11-07T18:46:56.049Z,10.60
2022-11-07T18:51:56.859Z,10.58
2022-11-07T18:56:59.271Z,10.55
2022-11-07T19:02:00.281Z,10.47
2022-11-07T19:07:01.231Z,10.34
2022-11-07T19:12:03.670Z,10.25
2022-11-07T19:17:04.878Z,10.12
2022-11-07T19:22:06.560Z,10.04
2022-11-07T19:27:09.106Z,9.91
2022-11-07T19:32:10.110Z,9.87
2022-11-07T19:37:11.476Z,9.84
2022-11-07T19:42:13.721Z,9.68
2022-11-07T19:47:14.613Z,9.57
2022-11-07T19:52:15.461Z,9.57
2022-11-07T19:57:17.989Z,9.59
2022-11-07T20:02:32.283Z,9.56
2022-11-07T20:07:34.312Z,9.48
2022-11-07T20:12:36.989Z,9.39
2022-11-07T20:17:38.165Z,9.33
2022-11-07T20:22:42.603Z,9.27
2022-11-07T20:27:48.225Z,9.27
2022-11-07T20:32:49.092Z,9.21
2022-11-07T20:37:50.023Z,9.27
2022-11-07T20:42:52.292Z,9.22
2022-11-07T20:47:53.184Z,9.16
2022-11-07T20:52:57.497Z,9.21
2022-11-07T20:58:03.625Z,9.22
2022-11-07T21:03:04.890Z,9.20
2022-11-07T21:08:06.374Z,9.26
2022-11-07T21:13:08.557Z,9.21
2022-11-07T21:18:11.608Z,9.22
2022-11-07T21:23:13.171Z,9.18
2022-11-07T21:28:17.965Z,9.23
2022-11-07T21:33:19.125Z,9.24
2022-11-07T21:38:20.409Z,9.30
2022-11-07T21:43:22.626Z,9.44
2022-11-07T21:48:23.468Z,9.53
2022-11-07T21:53:24.333Z,9.58
2022-11-07T21:58:26.695Z,9.61
2022-11-07T22:03:51.073Z,9.73
2022-11-07T22:08:49.565Z,9.87
2022-11-07T22:13:51.792Z,9.87
2022-11-07T22:18:52.881Z,9.97
2022-11-07T22:23:53.733Z,9.91
2022-11-07T22:28:56.320Z,9.83
2022-11-07T22:33:59.506Z,9.72
2022-11-07T22:39:00.379Z,9.58
2022-11-07T22:44:02.733Z,9.49
2022-11-07T22:49:03.942Z,9.50
2022-11-07T22:54:06.883Z,9.41
2022-11-07T22:59:10.337Z,9.48
2022-11-07T23:04:15.137Z,9.44
2022-11-07T23:09:17.052Z,9.43
2022-11-07T23:14:21.180Z,9.52
2022-11-07T23:19:24.193Z,9.56
2022-11-07T23:24:25.266Z,9.60
2022-11-07T23:29:27.433Z,9.66
2022-11-07T23:34:29.164Z,9.78
2022-11-07T23:39:30.339Z,9.83
2022-11-07T23:44:32.572Z,9.80
2022-11-07T23:49:51.328Z,9.76
2022-11-07T23:55:09.646Z,9.73
